sensor_id;sensor_type;location;lat;lon;timestamp;P1;durP1;ratioP1;P2;durP2;ratioP2
19095;SDS011;9680;52.520;13.332;2022-07-19T00:01:29;8.27;;;4.40;;
19095;SDS011;9680;52.520;13.332;2022-07-19T00:03:55;9.38;;;4.63;;
19095;SDS011;9680;52.520;13.332;2022-07-19T00:06:22;10.30;;;4.57;;
19095;SDS011;9680;52.520;13.332;2022-07-19T00:08:48;8.38;;;4.10;;
19095;SDS011;9680;52.520;13.332;2022-07-19T00:11:14;8.90;;;4.80;;
19095;SDS011;9680;52.520;13.332;2022-07-19T00:13:39;10.57;;;4.22;;
19095;SDS011;9680;52.520;13.332;2022-07-19T00:16:05;9.27;;;4.18;;
19095;SDS011;9680;52.520;13.332;2022-07-19T00:18:30;11.20;;;4.53;;
19095;SDS011;9680;52.520;13.332;2022-07-19T00:20:56;10.38;;;4.32;;
19095;SDS011;9680;52.520;13.332;2022-07-19T00:23:22;12.13;;;4.68;;
19095;SDS011;9680;52.520;13.332;2022-07-19T00:25:47;7.40;;;4.13;;
19095;SDS011;9680;52.520;13.332;2022-07-19T00:28:13;7.90;;;4.13;;
19095;SDS011;9680;52.520;13.332;2022-07-19T00:30:38;7.32;;;3.85;;
19095;SDS011;9680;52.520;13.332;2022-07-19T00:33:04;7.90;;;3.95;;
19095;SDS011;9680;52.520;13.332;2022-07-19T00:35:37;8.68;;;4.22;;
19095;SDS011;9680;52.520;13.332;2022-07-19T00:38:07;7.65;;;4.18;;
19095;SDS011;9680;52.520;13.332;2022-07-19T00:40:34;6.75;;;3.75;;
19095;SDS011;9680;52.520;13.332;2022-07-19T00:43:00;8.55;;;3.80;;
19095;SDS011;9680;52.520;13.332;2022-07-19T00:45:26;7.68;;;4.20;;
19095;SDS011;9680;52.520;13.332;2022-07-19T00:47:52;13.07;;;4.80;;
19095;SDS011;9680;52.520;13.332;2022-07-19T00:50:18;9.38;;;4.10;;
19095;SDS011;9680;52.520;13.332;2022-07-19T00:52:45;9.80;;;3.80;;
19095;SDS011;9680;52.520;13.332;2022-07-19T00:55:13;7.90;;;3.75;;
19095;SDS011;9680;52.520;13.332;2022-07-19T00:57:42;9.98;;;3.92;;
19095;SDS011;9680;52.520;13.332;2022-07-19T01:00:09;8.18;;;3.95;;
19095;SDS011;9680;52.520;13.332;2022-07-19T01:02:36;10.90;;;4.03;;
19095;SDS011;9680;52.520;13.332;2022-07-19T01:05:02;7.00;;;3.22;;
19095;SDS011;9680;52.520;13.332;2022-07-19T01:07:28;7.60;;;3.20;;
19095;SDS011;9680;52.520;13.332;2022-07-19T01:09:54;6.70;;;3.35;;
19095;SDS011;9680;52.520;13.332;2022-07-19T01:12:19;7.05;;;3.40;;
19095;SDS011;9680;52.520;13.332;2022-07-19T01:14:49;5.75;;;3.50;;
19095;SDS011;9680;52.520;13.332;2022-07-19T01:17:15;12.68;;;4.43;;
19095;SDS011;9680;52.520;13.332;2022-07-19T01:19:41;9.73;;;4.57;;
19095;SDS011;9680;52.520;13.332;2022-07-19T01:22:08;7.70;;;4.22;;
19095;SDS011;9680;52.520;13.332;2022-07-19T01:24:34;10.27;;;4.20;;
19095;SDS011;9680;52.520;13.332;2022-07-19T01:26:59;12.27;;;4.38;;
19095;SDS011;9680;52.520;13.332;2022-07-19T01:29:25;8.93;;;3.78;;
19095;SDS011;9680;52.520;13.332;2022-07-19T01:31:51;9.55;;;3.20;;
19095;SDS011;9680;52.520;13.332;2022-07-19T01:34:16;8.23;;;2.80;;
19095;SDS011;9680;52.520;13.332;2022-07-19T01:36:42;7.20;;;3.55;;
19095;SDS011;9680;52.520;13.332;2022-07-19T01:39:07;9.65;;;3.40;;
19095;SDS011;9680;52.520;13.332;2022-07-19T01:41:33;7.40;;;3.20;;
19095;SDS011;9680;52.520;13.332;2022-07-19T01:43:58;10.57;;;3.40;;
19095;SDS011;9680;52.520;13.332;2022-07-19T01:46:24;6.78;;;3.10;;
19095;SDS011;9680;52.520;13.332;2022-07-19T01:48:49;6.13;;;3.40;;
19095;SDS011;9680;52.520;13.332;2022-07-19T01:51:15;5.75;;;3.25;;
19095;SDS011;9680;52.520;13.332;2022-07-19T01:53:40;6.18;;;3.05;;
19095;SDS011;9680;52.520;13.332;2022-07-19T01:56:06;8.85;;;3.08;;
19095;SDS011;9680;52.520;13.332;2022-07-19T01:58:31;6.00;;;2.63;;
19095;SDS011;9680;52.520;13.332;2022-07-19T02:01:00;6.97;;;3.13;;
19095;SDS011;9680;52.520;13.332;2022-07-19T02:03:26;5.35;;;2.90;;
19095;SDS011;9680;52.520;13.332;2022-07-19T02:05:51;7.93;;;2.75;;
19095;SDS011;9680;52.520;13.332;2022-07-19T02:08:17;5.53;;;3.00;;
19095;SDS011;9680;52.520;13.332;2022-07-19T02:10:42;6.13;;;3.22;;
19095;SDS011;9680;52.520;13.332;2022-07-19T02:13:08;7.72;;;3.75;;
19095;SDS011;9680;52.520;13.332;2022-07-19T02:15:34;6.90;;;3.22;;
19095;SDS011;9680;52.520;13.332;2022-07-19T02:17:59;6.30;;;3.00;;
19095;SDS011;9680;52.520;13.332;2022-07-19T02:20:26;9.85;;;3.17;;
19095;SDS011;9680;52.520;13.332;2022-07-19T02:22:51;6.40;;;3.25;;
19095;SDS011;9680;52.520;13.332;2022-07-19T02:25:17;6.47;;;3.28;;
19095;SDS011;9680;52.520;13.332;2022-07-19T02:27:43;7.72;;;3.08;;
19095;SDS011;9680;52.520;13.332;2022-07-19T02:30:09;8.93;;;3.10;;
19095;SDS011;9680;52.520;13.332;2022-07-19T02:32:36;10.85;;;2.90;;
19095;SDS011;9680;52.520;13.332;2022-07-19T02:35:03;4.47;;;2.60;;
19095;SDS011;9680;52.520;13.332;2022-07-19T02:37:30;5.05;;;3.05;;
19095;SDS011;9680;52.520;13.332;2022-07-19T02:39:55;10.60;;;3.50;;
19095;SDS011;9680;52.520;13.332;2022-07-19T02:42:21;5.63;;;2.92;;
19095;SDS011;9680;52.520;13.332;2022-07-19T02:44:46;5.65;;;2.95;;
19095;SDS011;9680;52.520;13.332;2022-07-19T02:47:11;5.63;;;2.85;;
19095;SDS011;9680;52.520;13.332;2022-07-19T02:49:37;7.22;;;3.30;;
19095;SDS011;9680;52.520;13.332;2022-07-19T02:52:02;7.00;;;3.20;;
19095;SDS011;9680;52.520;13.332;2022-07-19T02:54:28;6.55;;;3.05;;
19095;SDS011;9680;52.520;13.332;2022-07-19T02:56:54;6.88;;;3.35;;
19095;SDS011;9680;52.520;13.332;2022-07-19T02:59:19;9.02;;;2.90;;
19095;SDS011;9680;52.520;13.332;2022-07-19T03:01:45;7.05;;;3.08;;
19095;SDS011;9680;52.520;13.332;2022-07-19T03:04:10;6.65;;;3.00;;
19095;SDS011;9680;52.520;13.332;2022-07-19T03:06:35;9.35;;;3.28;;
19095;SDS011;9680;52.520;13.332;2022-07-19T03:09:01;5.07;;;3.03;;
19095;SDS011;9680;52.520;13.332;2022-07-19T03:11:27;9.70;;;3.20;;
19095;SDS011;9680;52.520;13.332;2022-07-19T03:13:52;4.32;;;2.67;;
19095;SDS011;9680;52.520;13.332;2022-07-19T03:16:18;6.82;;;3.20;;
19095;SDS011;9680;52.520;13.332;2022-07-19T03:18:43;6.65;;;3.30;;
19095;SDS011;9680;52.520;13.332;2022-07-19T03:21:09;9.43;;;3.80;;
19095;SDS011;9680;52.520;13.332;2022-07-19T03:23:35;8.48;;;3.78;;
19095;SDS011;9680;52.520;13.332;2022-07-19T03:26:02;8.90;;;3.58;;
19095;SDS011;9680;52.520;13.332;2022-07-19T03:28:28;7.88;;;3.67;;
19095;SDS011;9680;52.520;13.332;2022-07-19T03:30:54;8.10;;;3.15;;
19095;SDS011;9680;52.520;13.332;2022-07-19T03:33:19;6.38;;;3.42;;
19095;SDS011;9680;52.520;13.332;2022-07-19T03:35:45;7.80;;;3.58;;
19095;SDS011;9680;52.520;13.332;2022-07-19T03:38:11;7.47;;;3.17;;
19095;SDS011;9680;52.520;13.332;2022-07-19T03:40:38;9.27;;;3.95;;
19095;SDS011;9680;52.520;13.332;2022-07-19T03:43:04;9.07;;;3.50;;
19095;SDS011;9680;52.520;13.332;2022-07-19T03:45:30;8.02;;;3.55;;
19095;SDS011;9680;52.520;13.332;2022-07-19T03:47:56;8.88;;;3.65;;
19095;SDS011;9680;52.520;13.332;2022-07-19T03:50:21;11.05;;;3.50;;
19095;SDS011;9680;52.520;13.332;2022-07-19T03:52:47;9.75;;;3.55;;
19095;SDS011;9680;52.520;13.332;2022-07-19T03:55:12;6.82;;;3.75;;
19095;SDS011;9680;52.520;13.332;2022-07-19T03:57:38;7.28;;;3.70;;
19095;SDS011;9680;52.520;13.332;2022-07-19T04:00:03;8.50;;;4.18;;
19095;SDS011;9680;52.520;13.332;2022-07-19T04:02:37;7.97;;;3.65;;
19095;SDS011;9680;52.520;13.332;2022-07-19T04:05:02;9.05;;;3.80;;
19095;SDS011;9680;52.520;13.332;2022-07-19T04:07:28;7.05;;;3.58;;
19095;SDS011;9680;52.520;13.332;2022-07-19T04:09:54;5.88;;;3.45;;
19095;SDS011;9680;52.520;13.332;2022-07-19T04:12:19;10.25;;;4.18;;
19095;SDS011;9680;52.520;13.332;2022-07-19T04:14:45;7.20;;;4.10;;
19095;SDS011;9680;52.520;13.332;2022-07-19T04:17:10;8.15;;;3.90;;
19095;SDS011;9680;52.520;13.332;2022-07-19T04:19:35;13.70;;;4.00;;
19095;SDS011;9680;52.520;13.332;2022-07-19T04:22:01;6.60;;;3.60;;
19095;SDS011;9680;52.520;13.332;2022-07-19T04:24:27;11.40;;;3.70;;
19095;SDS011;9680;52.520;13.332;2022-07-19T04:26:53;11.45;;;3.72;;
19095;SDS011;9680;52.520;13.332;2022-07-19T04:29:18;8.57;;;3.63;;
19095;SDS011;9680;52.520;13.332;2022-07-19T04:31:43;8.18;;;3.35;;
19095;SDS011;9680;52.520;13.332;2022-07-19T04:34:09;8.32;;;3.67;;
19095;SDS011;9680;52.520;13.332;2022-07-19T04:36:35;8.60;;;3.70;;
19095;SDS011;9680;52.520;13.332;2022-07-19T04:39:00;7.40;;;3.47;;
19095;SDS011;9680;52.520;13.332;2022-07-19T04:41:26;8.05;;;3.67;;
19095;SDS011;9680;52.520;13.332;2022-07-19T04:43:51;7.18;;;3.85;;
19095;SDS011;9680;52.520;13.332;2022-07-19T04:46:17;11.15;;;3.95;;
19095;SDS011;9680;52.520;13.332;2022-07-19T04:48:42;5.95;;;3.70;;
19095;SDS011;9680;52.520;13.332;2022-07-19T04:51:08;8.02;;;3.60;;
19095;SDS011;9680;52.520;13.332;2022-07-19T04:53:33;9.00;;;3.15;;
19095;SDS011;9680;52.520;13.332;2022-07-19T04:55:59;6.57;;;3.25;;
19095;SDS011;9680;52.520;13.332;2022-07-19T04:58:24;8.02;;;3.35;;
19095;SDS011;9680;52.520;13.332;2022-07-19T05:00:50;7.70;;;3.30;;
19095;SDS011;9680;52.520;13.332;2022-07-19T05:03:15;6.30;;;3.20;;
19095;SDS011;9680;52.520;13.332;2022-07-19T05:05:41;7.63;;;3.33;;
19095;SDS011;9680;52.520;13.332;2022-07-19T05:08:06;8.88;;;3.60;;
19095;SDS011;9680;52.520;13.332;2022-07-19T05:10:32;7.95;;;3.13;;
19095;SDS011;9680;52.520;13.332;2022-07-19T05:12:58;8.88;;;3.10;;
19095;SDS011;9680;52.520;13.332;2022-07-19T05:15:23;8.57;;;3.47;;
19095;SDS011;9680;52.520;13.332;2022-07-19T05:17:49;7.63;;;3.30;;
19095;SDS011;9680;52.520;13.332;2022-07-19T05:20:15;5.07;;;3.03;;
19095;SDS011;9680;52.520;13.332;2022-07-19T05:22:42;7.13;;;3.05;;
19095;SDS011;9680;52.520;13.332;2022-07-19T05:25:09;5.97;;;3.00;;
19095;SDS011;9680;52.520;13.332;2022-07-19T05:27:38;6.47;;;2.72;;
19095;SDS011;9680;52.520;13.332;2022-07-19T05:30:04;6.28;;;2.85;;
19095;SDS011;9680;52.520;13.332;2022-07-19T05:32:30;6.97;;;2.90;;
19095;SDS011;9680;52.520;13.332;2022-07-19T05:34:57;12.52;;;2.63;;
19095;SDS011;9680;52.520;13.332;2022-07-19T05:37:22;11.75;;;3.10;;
19095;SDS011;9680;52.520;13.332;2022-07-19T05:39:48;6.80;;;3.15;;
19095;SDS011;9680;52.520;13.332;2022-07-19T05:42:13;6.90;;;3.20;;
19095;SDS011;9680;52.520;13.332;2022-07-19T05:44:39;5.57;;;3.00;;
19095;SDS011;9680;52.520;13.332;2022-07-19T05:47:05;9.48;;;2.88;;
19095;SDS011;9680;52.520;13.332;2022-07-19T05:49:31;7.90;;;2.95;;
19095;SDS011;9680;52.520;13.332;2022-07-19T05:51:56;7.60;;;2.90;;
19095;SDS011;9680;52.520;13.332;2022-07-19T05:54:22;9.07;;;2.70;;
19095;SDS011;9680;52.520;13.332;2022-07-19T05:56:48;11.70;;;3.10;;
19095;SDS011;9680;52.520;13.332;2022-07-19T05:59:13;9.00;;;3.10;;
19095;SDS011;9680;52.520;13.332;2022-07-19T06:01:39;6.28;;;2.92;;
19095;SDS011;9680;52.520;13.332;2022-07-19T06:04:05;9.98;;;2.65;;
19095;SDS011;9680;52.520;13.332;2022-07-19T06:06:32;7.65;;;3.05;;
19095;SDS011;9680;52.520;13.332;2022-07-19T06:08:59;5.38;;;2.58;;
19095;SDS011;9680;52.520;13.332;2022-07-19T06:11:26;7.70;;;2.40;;
19095;SDS011;9680;52.520;13.332;2022-07-19T06:13:52;8.65;;;3.33;;
19095;SDS011;9680;52.520;13.332;2022-07-19T06:16:18;5.72;;;2.80;;
19095;SDS011;9680;52.520;13.332;2022-07-19T06:18:44;6.93;;;2.92;;
19095;SDS011;9680;52.520;13.332;2022-07-19T06:21:11;5.32;;;2.47;;
19095;SDS011;9680;52.520;13.332;2022-07-19T06:23:39;11.73;;;2.65;;
19095;SDS011;9680;52.520;13.332;2022-07-19T06:26:06;4.75;;;2.60;;
19095;SDS011;9680;52.520;13.332;2022-07-19T06:28:33;9.68;;;2.85;;
19095;SDS011;9680;52.520;13.332;2022-07-19T06:30:58;4.93;;;2.40;;
19095;SDS011;9680;52.520;13.332;2022-07-19T06:33:25;7.05;;;2.25;;
19095;SDS011;9680;52.520;13.332;2022-07-19T06:35:50;7.47;;;2.30;;
19095;SDS011;9680;52.520;13.332;2022-07-19T06:38:16;5.32;;;2.38;;
19095;SDS011;9680;52.520;13.332;2022-07-19T06:40:42;5.43;;;2.45;;
19095;SDS011;9680;52.520;13.332;2022-07-19T06:43:08;7.95;;;2.40;;
19095;SDS011;9680;52.520;13.332;2022-07-19T06:45:37;5.03;;;1.98;;
19095;SDS011;9680;52.520;13.332;2022-07-19T06:48:02;11.18;;;2.50;;
19095;SDS011;9680;52.520;13.332;2022-07-19T06:50:28;5.72;;;2.30;;
19095;SDS011;9680;52.520;13.332;2022-07-19T06:52:54;5.93;;;2.42;;
19095;SDS011;9680;52.520;13.332;2022-07-19T06:55:19;4.57;;;2.22;;
19095;SDS011;9680;52.520;13.332;2022-07-19T06:57:45;5.13;;;2.55;;
19095;SDS011;9680;52.520;13.332;2022-07-19T07:00:11;10.27;;;3.10;;
19095;SDS011;9680;52.520;13.332;2022-07-19T07:02:41;7.90;;;2.58;;
19095;SDS011;9680;52.520;13.332;2022-07-19T07:05:08;8.20;;;2.65;;
19095;SDS011;9680;52.520;13.332;2022-07-19T07:07:44;9.38;;;2.67;;
19095;SDS011;9680;52.520;13.332;2022-07-19T07:10:10;7.10;;;2.70;;
19095;SDS011;9680;52.520;13.332;2022-07-19T07:12:36;6.45;;;2.53;;
19095;SDS011;9680;52.520;13.332;2022-07-19T07:15:03;7.88;;;2.60;;
19095;SDS011;9680;52.520;13.332;2022-07-19T07:17:29;6.93;;;2.65;;
19095;SDS011;9680;52.520;13.332;2022-07-19T07:19:54;9.25;;;3.00;;
19095;SDS011;9680;52.520;13.332;2022-07-19T07:22:21;6.18;;;2.50;;
19095;SDS011;9680;52.520;13.332;2022-07-19T07:24:46;6.72;;;2.60;;
19095;SDS011;9680;52.520;13.332;2022-07-19T07:27:12;5.30;;;2.10;;
19095;SDS011;9680;52.520;13.332;2022-07-19T07:29:37;5.60;;;2.58;;
19095;SDS011;9680;52.520;13.332;2022-07-19T07:32:03;5.82;;;2.40;;
19095;SDS011;9680;52.520;13.332;2022-07-19T07:34:29;3.55;;;2.15;;
19095;SDS011;9680;52.520;13.332;2022-07-19T07:36:54;5.65;;;2.08;;
19095;SDS011;9680;52.520;13.332;2022-07-19T07:39:20;9.23;;;2.50;;
19095;SDS011;9680;52.520;13.332;2022-07-19T07:41:45;6.85;;;2.22;;
19095;SDS011;9680;52.520;13.332;2022-07-19T07:44:10;7.97;;;2.40;;
19095;SDS011;9680;52.520;13.332;2022-07-19T07:46:36;8.63;;;2.50;;
19095;SDS011;9680;52.520;13.332;2022-07-19T07:49:02;7.18;;;2.40;;
19095;SDS011;9680;52.520;13.332;2022-07-19T07:51:27;5.10;;;2.30;;
19095;SDS011;9680;52.520;13.332;2022-07-19T07:53:53;13.27;;;2.40;;
19095;SDS011;9680;52.520;13.332;2022-07-19T07:59:01;13.05;;;2.40;;
19095;SDS011;9680;52.520;13.332;2022-07-19T08:01:27;12.80;;;2.28;;
19095;SDS011;9680;52.520;13.332;2022-07-19T08:03:55;4.97;;;2.40;;
19095;SDS011;9680;52.520;13.332;2022-07-19T08:06:20;10.88;;;2.45;;
19095;SDS011;9680;52.520;13.332;2022-07-19T08:08:46;6.45;;;2.20;;
19095;SDS011;9680;52.520;13.332;2022-07-19T08:11:11;5.97;;;2.95;;
19095;SDS011;9680;52.520;13.332;2022-07-19T08:13:37;6.43;;;2.10;;
19095;SDS011;9680;52.520;13.332;2022-07-19T08:16:02;9.02;;;2.67;;
19095;SDS011;9680;52.520;13.332;2022-07-19T08:18:28;5.43;;;2.28;;
19095;SDS011;9680;52.520;13.332;2022-07-19T08:20:53;7.07;;;2.38;;
19095;SDS011;9680;52.520;13.332;2022-07-19T08:23:19;10.63;;;2.53;;
19095;SDS011;9680;52.520;13.332;2022-07-19T08:25:44;5.53;;;2.03;;
19095;SDS011;9680;52.520;13.332;2022-07-19T08:28:10;6.60;;;2.10;;
19095;SDS011;9680;52.520;13.332;2022-07-19T08:30:35;5.57;;;2.13;;
19095;SDS011;9680;52.520;13.332;2022-07-19T08:33:01;4.80;;;2.20;;
19095;SDS011;9680;52.520;13.332;2022-07-19T08:35:26;13.55;;;2.50;;
19095;SDS011;9680;52.520;13.332;2022-07-19T08:37:52;7.03;;;2.50;;
19095;SDS011;9680;52.520;13.332;2022-07-19T08:40:18;8.05;;;2.38;;
19095;SDS011;9680;52.520;13.332;2022-07-19T08:42:43;6.07;;;2.33;;
19095;SDS011;9680;52.520;13.332;2022-07-19T08:45:10;7.95;;;2.33;;
19095;SDS011;9680;52.520;13.332;2022-07-19T08:47:36;7.45;;;1.90;;
19095;SDS011;9680;52.520;13.332;2022-07-19T08:50:04;6.82;;;2.20;;
19095;SDS011;9680;52.520;13.332;2022-07-19T08:52:33;6.43;;;2.20;;
19095;SDS011;9680;52.520;13.332;2022-07-19T08:54:59;4.93;;;2.15;;
19095;SDS011;9680;52.520;13.332;2022-07-19T08:57:25;6.72;;;2.20;;
19095;SDS011;9680;52.520;13.332;2022-07-19T09:00:10;12.18;;;2.30;;
19095;SDS011;9680;52.520;13.332;2022-07-19T09:02:37;6.20;;;2.03;;
19095;SDS011;9680;52.520;13.332;2022-07-19T09:05:04;4.45;;;2.40;;
19095;SDS011;9680;52.520;13.332;2022-07-19T09:07:35;4.88;;;2.40;;
19095;SDS011;9680;52.520;13.332;2022-07-19T09:13:24;5.72;;;2.00;;
19095;SDS011;9680;52.520;13.332;2022-07-19T09:20:45;5.10;;;1.98;;
19095;SDS011;9680;52.520;13.332;2022-07-19T09:23:12;5.80;;;3.17;;
19095;SDS011;9680;52.520;13.332;2022-07-19T09:28:07;8.88;;;2.30;;
19095;SDS011;9680;52.520;13.332;2022-07-19T09:33:11;3.40;;;2.00;;
19095;SDS011;9680;52.520;13.332;2022-07-19T09:35:40;5.38;;;2.20;;
19095;SDS011;9680;52.520;13.332;2022-07-19T09:38:26;7.47;;;2.20;;
19095;SDS011;9680;52.520;13.332;2022-07-19T09:40:53;5.85;;;2.35;;
19095;SDS011;9680;52.520;13.332;2022-07-19T09:46:36;10.13;;;2.40;;
19095;SDS011;9680;52.520;13.332;2022-07-19T09:49:04;9.63;;;2.53;;
19095;SDS011;9680;52.520;13.332;2022-07-19T09:51:35;5.32;;;2.22;;
19095;SDS011;9680;52.520;13.332;2022-07-19T09:54:03;4.85;;;2.30;;
19095;SDS011;9680;52.520;13.332;2022-07-19T09:56:33;4.88;;;2.47;;
19095;SDS011;9680;52.520;13.332;2022-07-19T09:59:00;7.85;;;2.75;;
19095;SDS011;9680;52.520;13.332;2022-07-19T10:01:29;7.13;;;2.50;;
19095;SDS011;9680;52.520;13.332;2022-07-19T10:03:55;5.53;;;2.40;;
19095;SDS011;9680;52.520;13.332;2022-07-19T10:06:25;5.25;;;2.63;;
19095;SDS011;9680;52.520;13.332;2022-07-19T10:08:51;3.10;;;1.88;;
19095;SDS011;9680;52.520;13.332;2022-07-19T10:11:18;6.22;;;2.10;;
19095;SDS011;9680;52.520;13.332;2022-07-19T10:13:44;4.53;;;2.20;;
19095;SDS011;9680;52.520;13.332;2022-07-19T10:16:19;4.28;;;2.42;;
19095;SDS011;9680;52.520;13.332;2022-07-19T10:18:51;10.77;;;2.20;;
19095;SDS011;9680;52.520;13.332;2022-07-19T10:21:33;9.57;;;2.55;;
19095;SDS011;9680;52.520;13.332;2022-07-19T10:24:00;4.43;;;2.15;;
19095;SDS011;9680;52.520;13.332;2022-07-19T10:26:48;4.88;;;1.92;;
19095;SDS011;9680;52.520;13.332;2022-07-19T10:29:22;6.50;;;2.25;;
19095;SDS011;9680;52.520;13.332;2022-07-19T10:32:08;3.55;;;2.15;;
19095;SDS011;9680;52.520;13.332;2022-07-19T10:34:38;6.75;;;2.75;;
19095;SDS011;9680;52.520;13.332;2022-07-19T10:37:05;4.25;;;2.45;;
19095;SDS011;9680;52.520;13.332;2022-07-19T10:39:35;7.10;;;2.67;;
19095;SDS011;9680;52.520;13.332;2022-07-19T10:42:16;3.63;;;2.33;;
19095;SDS011;9680;52.520;13.332;2022-07-19T10:49:47;6.90;;;2.17;;
19095;SDS011;9680;52.520;13.332;2022-07-19T11:05:51;4.63;;;1.90;;
19095;SDS011;9680;52.520;13.332;2022-07-19T11:11:17;4.55;;;1.85;;
19095;SDS011;9680;52.520;13.332;2022-07-19T11:13:52;3.92;;;2.05;;
19095;SDS011;9680;52.520;13.332;2022-07-19T11:16:20;6.00;;;2.00;;
19095;SDS011;9680;52.520;13.332;2022-07-19T11:18:46;4.10;;;1.95;;
19095;SDS011;9680;52.520;13.332;2022-07-19T11:21:13;3.53;;;1.80;;
19095;SDS011;9680;52.520;13.332;2022-07-19T11:23:39;7.95;;;2.30;;
19095;SDS011;9680;52.520;13.332;2022-07-19T11:26:13;3.33;;;1.83;;
19095;SDS011;9680;52.520;13.332;2022-07-19T11:28:42;3.03;;;1.70;;
19095;SDS011;9680;52.520;13.332;2022-07-19T11:33:41;6.72;;;1.95;;
19095;SDS011;9680;52.520;13.332;2022-07-19T11:36:08;4.55;;;1.70;;
19095;SDS011;9680;52.520;13.332;2022-07-19T11:38:40;4.57;;;2.10;;
19095;SDS011;9680;52.520;13.332;2022-07-19T11:41:08;3.22;;;1.92;;
19095;SDS011;9680;52.520;13.332;2022-07-19T11:43:50;3.53;;;1.80;;
19095;SDS011;9680;52.520;13.332;2022-07-19T11:46:39;3.83;;;2.38;;
19095;SDS011;9680;52.520;13.332;2022-07-19T11:49:06;4.32;;;2.10;;
19095;SDS011;9680;52.520;13.332;2022-07-19T11:51:33;4.00;;;2.13;;
19095;SDS011;9680;52.520;13.332;2022-07-19T11:54:00;7.88;;;3.55;;
19095;SDS011;9680;52.520;13.332;2022-07-19T11:56:30;3.58;;;2.00;;
19095;SDS011;9680;52.520;13.332;2022-07-19T11:58:58;8.10;;;2.17;;
19095;SDS011;9680;52.520;13.332;2022-07-19T12:01:26;4.63;;;2.20;;
19095;SDS011;9680;52.520;13.332;2022-07-19T12:06:20;3.15;;;1.75;;
19095;SDS011;9680;52.520;13.332;2022-07-19T12:09:05;6.57;;;2.10;;
19095;SDS011;9680;52.520;13.332;2022-07-19T12:11:37;2.75;;;1.73;;
19095;SDS011;9680;52.520;13.332;2022-07-19T12:16:49;4.45;;;2.50;;
19095;SDS011;9680;52.520;13.332;2022-07-19T12:19:33;3.10;;;1.98;;
19095;SDS011;9680;52.520;13.332;2022-07-19T12:21:59;4.07;;;2.08;;
19095;SDS011;9680;52.520;13.332;2022-07-19T12:24:25;4.15;;;2.13;;
19095;SDS011;9680;52.520;13.332;2022-07-19T12:29:33;3.75;;;2.15;;
19095;SDS011;9680;52.520;13.332;2022-07-19T12:32:04;4.38;;;2.33;;
19095;SDS011;9680;52.520;13.332;2022-07-19T12:34:42;3.10;;;1.73;;
19095;SDS011;9680;52.520;13.332;2022-07-19T12:37:27;3.20;;;1.83;;
19095;SDS011;9680;52.520;13.332;2022-07-19T12:40:13;4.47;;;2.13;;
19095;SDS011;9680;52.520;13.332;2022-07-19T12:45:14;4.63;;;2.08;;
19095;SDS011;9680;52.520;13.332;2022-07-19T12:47:44;9.63;;;2.38;;
19095;SDS011;9680;52.520;13.332;2022-07-19T12:50:18;4.97;;;2.20;;
19095;SDS011;9680;52.520;13.332;2022-07-19T12:52:44;9.80;;;2.10;;
19095;SDS011;9680;52.520;13.332;2022-07-19T12:55:09;5.00;;;2.33;;
19095;SDS011;9680;52.520;13.332;2022-07-19T12:57:35;2.60;;;1.95;;
19095;SDS011;9680;52.520;13.332;2022-07-19T13:00:00;6.68;;;2.00;;
19095;SDS011;9680;52.520;13.332;2022-07-19T13:02:27;3.20;;;2.03;;
19095;SDS011;9680;52.520;13.332;2022-07-19T13:04:52;4.13;;;2.30;;
19095;SDS011;9680;52.520;13.332;2022-07-19T13:07:18;5.32;;;2.10;;
19095;SDS011;9680;52.520;13.332;2022-07-19T13:09:44;4.50;;;2.15;;
19095;SDS011;9680;52.520;13.332;2022-07-19T13:12:09;4.60;;;2.20;;
19095;SDS011;9680;52.520;13.332;2022-07-19T13:14:35;8.15;;;2.22;;
19095;SDS011;9680;52.520;13.332;2022-07-19T13:17:02;5.32;;;2.30;;
19095;SDS011;9680;52.520;13.332;2022-07-19T13:19:28;4.85;;;2.30;;
19095;SDS011;9680;52.520;13.332;2022-07-19T13:21:54;6.30;;;2.17;;
19095;SDS011;9680;52.520;13.332;2022-07-19T13:24:19;6.75;;;2.20;;
19095;SDS011;9680;52.520;13.332;2022-07-19T13:26:45;5.70;;;2.30;;
19095;SDS011;9680;52.520;13.332;2022-07-19T13:29:11;3.75;;;2.10;;
19095;SDS011;9680;52.520;13.332;2022-07-19T13:31:36;5.68;;;2.47;;
19095;SDS011;9680;52.520;13.332;2022-07-19T13:34:03;6.60;;;3.00;;
19095;SDS011;9680;52.520;13.332;2022-07-19T13:36:29;9.25;;;2.30;;
19095;SDS011;9680;52.520;13.332;2022-07-19T13:38:54;5.82;;;2.58;;
19095;SDS011;9680;52.520;13.332;2022-07-19T13:41:20;7.13;;;2.67;;
19095;SDS011;9680;52.520;13.332;2022-07-19T13:43:46;6.40;;;2.50;;
19095;SDS011;9680;52.520;13.332;2022-07-19T13:46:12;4.10;;;2.40;;
19095;SDS011;9680;52.520;13.332;2022-07-19T13:48:40;4.13;;;2.38;;
19095;SDS011;9680;52.520;13.332;2022-07-19T13:51:07;5.07;;;2.30;;
19095;SDS011;9680;52.520;13.332;2022-07-19T13:53:33;4.32;;;2.35;;
19095;SDS011;9680;52.520;13.332;2022-07-19T13:56:00;4.40;;;2.33;;
19095;SDS011;9680;52.520;13.332;2022-07-19T13:58:26;5.65;;;2.42;;
19095;SDS011;9680;52.520;13.332;2022-07-19T14:00:51;3.60;;;2.45;;
19095;SDS011;9680;52.520;13.332;2022-07-19T14:03:17;4.93;;;2.13;;
19095;SDS011;9680;52.520;13.332;2022-07-19T14:05:43;6.30;;;2.50;;
19095;SDS011;9680;52.520;13.332;2022-07-19T14:08:09;7.78;;;2.42;;
19095;SDS011;9680;52.520;13.332;2022-07-19T14:10:36;4.50;;;2.33;;
19095;SDS011;9680;52.520;13.332;2022-07-19T14:13:02;3.88;;;2.20;;
19095;SDS011;9680;52.520;13.332;2022-07-19T14:15:29;7.20;;;2.38;;
19095;SDS011;9680;52.520;13.332;2022-07-19T14:17:55;5.32;;;2.28;;
19095;SDS011;9680;52.520;13.332;2022-07-19T14:20:21;3.42;;;2.10;;
19095;SDS011;9680;52.520;13.332;2022-07-19T14:22:47;6.18;;;2.35;;
19095;SDS011;9680;52.520;13.332;2022-07-19T14:25:13;4.13;;;2.00;;
19095;SDS011;9680;52.520;13.332;2022-07-19T14:27:39;6.18;;;2.33;;
19095;SDS011;9680;52.520;13.332;2022-07-19T14:30:04;5.75;;;2.25;;
19095;SDS011;9680;52.520;13.332;2022-07-19T14:32:30;9.00;;;2.22;;
19095;SDS011;9680;52.520;13.332;2022-07-19T14:34:56;6.55;;;2.25;;
19095;SDS011;9680;52.520;13.332;2022-07-19T14:37:21;10.02;;;2.38;;
19095;SDS011;9680;52.520;13.332;2022-07-19T14:39:48;5.57;;;2.50;;
19095;SDS011;9680;52.520;13.332;2022-07-19T14:42:13;5.28;;;2.65;;
19095;SDS011;9680;52.520;13.332;2022-07-19T14:44:39;4.75;;;2.33;;
19095;SDS011;9680;52.520;13.332;2022-07-19T14:47:05;7.22;;;2.30;;
19095;SDS011;9680;52.520;13.332;2022-07-19T14:49:33;8.55;;;2.75;;
19095;SDS011;9680;52.520;13.332;2022-07-19T14:51:59;5.07;;;2.33;;
19095;SDS011;9680;52.520;13.332;2022-07-19T14:54:25;4.10;;;2.67;;
19095;SDS011;9680;52.520;13.332;2022-07-19T14:56:52;4.45;;;2.22;;
19095;SDS011;9680;52.520;13.332;2022-07-19T14:59:18;5.80;;;2.17;;
19095;SDS011;9680;52.520;13.332;2022-07-19T15:01:45;5.38;;;2.40;;
19095;SDS011;9680;52.520;13.332;2022-07-19T15:04:11;5.82;;;2.40;;
19095;SDS011;9680;52.520;13.332;2022-07-19T15:06:36;6.40;;;2.30;;
19095;SDS011;9680;52.520;13.332;2022-07-19T15:09:02;4.25;;;2.30;;
19095;SDS011;9680;52.520;13.332;2022-07-19T15:11:27;6.07;;;2.50;;
19095;SDS011;9680;52.520;13.332;2022-07-19T15:13:58;8.43;;;2.50;;
19095;SDS011;9680;52.520;13.332;2022-07-19T15:16:23;7.88;;;2.25;;
19095;SDS011;9680;52.520;13.332;2022-07-19T15:18:49;3.92;;;2.20;;
19095;SDS011;9680;52.520;13.332;2022-07-19T15:21:14;5.45;;;2.60;;
19095;SDS011;9680;52.520;13.332;2022-07-19T15:23:40;5.75;;;2.50;;
19095;SDS011;9680;52.520;13.332;2022-07-19T15:26:06;6.72;;;2.60;;
19095;SDS011;9680;52.520;13.332;2022-07-19T15:28:32;6.80;;;2.70;;
19095;SDS011;9680;52.520;13.332;2022-07-19T15:30:58;8.32;;;2.47;;
19095;SDS011;9680;52.520;13.332;2022-07-19T15:33:25;4.53;;;2.50;;
19095;SDS011;9680;52.520;13.332;2022-07-19T15:35:50;5.28;;;2.30;;
19095;SDS011;9680;52.520;13.332;2022-07-19T15:38:16;4.32;;;2.22;;